Quarteles, New Mexico
Current Conditions -  °F | °C
As of 7:35 AM on Thursday 30 Oct 2014 (Local Time) from KLAM Reporting Station
Clear Clear  
Wind Chill: 44°   Ceiling: Unl
Heat Index: 48°   Visibility: 10mi
Dew Point: 10°   Wind: 9mph
Humidity: 22%   Direction: 340°NNW
Pressure: 30.37"   Gusts: NA
Location:  35.9775°N, 106.158°W
Report Text: KLAM 301335Z AUTO 34008KT 10SM CLR 09/M12 A3037 RMK AO2 T00911120
Loading
Personal Weather Stations






























Interactive Weather Map New forecast layout! Learn more

10-Day Weather Forecast

Advertisements
Track Severe Weather on mobile